Time;durP1;ratioP1;P1;durP2;ratioP2;P2;SDS_P1;SDS_P2;PMS_P1;PMS_P2;Temp;Humidity;BMP_temperature;BMP_pressure;BME280_temperature;BME280_humidity;BME280_pressure;Samples;Min_cycle;Max_cycle;Signal;HPM_P1;HPM_P2
2023/02/24 00:01:51;;;;;;;12.30;3.30;;;4.50;99.90;;;;;;5053717;28;20505;-74
2023/02/24 00:04:20;;;;;;;8.80;3.20;;;4.50;99.90;;;;;;5053004;28;20418;-74
2023/02/24 00:06:49;;;;;;;8.17;3.90;;;4.50;99.90;;;;;;5051590;28;20473;-74
2023/02/24 00:09:20;;;;;;;8.50;3.07;;;4.50;99.90;;;;;;5053016;28;20958;-74
2023/02/24 00:11:54;;;;;;;10.40;3.50;;;4.50;99.90;;;;;;5053016;28;20465;-74
2023/02/24 00:14:23;;;;;;;8.50;3.00;;;4.50;99.90;;;;;;5053454;28;20457;-74
2023/02/24 00:16:52;;;;;;;10.40;3.53;;;4.50;99.90;;;;;;5055422;28;20445;-74
2023/02/24 00:19:22;;;;;;;7.90;3.30;;;4.50;99.90;;;;;;5056671;28;20440;-74
2023/02/24 00:21:53;;;;;;;7.83;2.83;;;4.50;99.90;;;;;;5055315;28;20469;-74
2023/02/24 00:24:23;;;;;;;7.97;2.43;;;4.50;99.90;;;;;;5056617;28;20438;-74
2023/02/24 00:26:54;;;;;;;7.80;3.10;;;4.50;99.90;;;;;;5055279;28;20473;-74
2023/02/24 00:29:24;;;;;;;10.53;3.40;;;4.50;99.90;;;;;;5055367;28;20499;-74
2023/02/24 00:31:57;;;;;;;9.80;3.00;;;4.50;99.90;;;;;;5057019;28;20462;-74
2023/02/24 00:34:26;;;;;;;9.20;2.67;;;4.50;99.90;;;;;;5055224;28;20438;-74
2023/02/24 00:36:56;;;;;;;8.90;3.03;;;4.50;99.90;;;;;;5056444;28;20896;-74
2023/02/24 00:39:32;;;;;;;9.63;3.10;;;4.50;99.90;;;;;;5055033;28;20445;-74
2023/02/24 00:42:04;;;;;;;11.97;2.90;;;4.50;99.90;;;;;;5055030;28;20469;-74
2023/02/24 00:44:34;;;;;;;7.27;2.90;;;4.50;99.90;;;;;;5055088;28;20437;-74
2023/02/24 00:47:04;;;;;;;9.30;3.20;;;4.50;99.90;;;;;;5056197;28;20468;-74
2023/02/24 00:49:40;;;;;;;8.30;2.93;;;4.50;99.90;;;;;;5056545;28;20418;-74
2023/02/24 00:52:12;;;;;;;7.50;2.60;;;4.50;99.90;;;;;;5054878;28;20479;-74
2023/02/24 00:54:42;;;;;;;9.70;3.03;;;4.50;99.90;;;;;;5054857;28;20440;-74
2023/02/24 00:57:11;;;;;;;13.20;3.47;;;4.50;99.90;;;;;;5054896;28;20446;-74
2023/02/24 00:59:41;;;;;;;9.80;2.70;;;4.50;99.90;;;;;;5056011;28;20888;-74
2023/02/24 01:02:10;;;;;;;6.83;2.10;;;4.50;99.90;;;;;;5054587;28;20470;-74
2023/02/24 01:04:38;;;;;;;8.60;2.87;;;4.50;99.90;;;;;;5055896;28;20830;-74
2023/02/24 01:07:09;;;;;;;9.80;2.90;;;4.50;99.90;;;;;;5054515;28;20496;-74
2023/02/24 01:09:40;;;;;;;10.70;3.00;;;4.50;99.90;;;;;;5054661;28;20438;-74
2023/02/24 01:14:56;;;;;;;10.30;2.87;;;4.50;99.90;;;;;;5055724;28;20418;-74
2023/02/24 01:17:25;;;;;;;11.10;2.60;;;4.50;99.90;;;;;;5054371;28;20450;-74
2023/02/24 01:19:53;;;;;;;9.80;2.63;;;4.60;99.90;;;;;;5054313;28;20457;-74
2023/02/24 01:22:22;;;;;;;8.47;2.13;;;4.60;99.90;;;;;;5054203;28;20556;-74
2023/02/24 01:24:51;;;;;;;8.13;2.13;;;4.50;99.90;;;;;;5053651;28;20453;-74
2023/02/24 01:27:20;;;;;;;6.40;2.10;;;4.50;99.90;;;;;;5053692;28;20473;-74
2023/02/24 01:29:49;;;;;;;8.50;2.50;;;4.50;99.90;;;;;;5054141;28;20446;-74
2023/02/24 01:32:20;;;;;;;9.20;3.03;;;4.50;99.90;;;;;;5055611;28;20461;-74
2023/02/24 01:34:52;;;;;;;9.80;2.80;;;4.50;99.90;;;;;;5054116;28;20473;-74
2023/02/24 01:37:20;;;;;;;9.50;2.03;;;4.50;99.90;;;;;;5054044;28;20480;-74
2023/02/24 01:39:50;;;;;;;6.03;2.47;;;4.50;99.90;;;;;;5053997;28;20790;-74
2023/02/24 01:42:22;;;;;;;5.93;2.07;;;4.60;99.90;;;;;;5055112;28;20462;-74
2023/02/24 01:45:11;;;;;;;10.87;2.73;;;4.50;99.90;;;;;;5053910;28;20449;-74
2023/02/24 01:47:40;;;;;;;9.10;2.70;;;4.50;99.90;;;;;;5053775;28;20462;-74
2023/02/24 01:50:13;;;;;;;7.73;1.97;;;4.50;99.90;;;;;;5053792;28;20864;-74
2023/02/24 01:52:44;;;;;;;9.67;2.00;;;4.50;99.90;;;;;;5070364;28;20484;-74
2023/02/24 01:55:18;;;;;;;9.23;2.60;;;4.50;99.90;;;;;;5053730;28;20935;-74
2023/02/24 01:57:50;;;;;;;7.17;1.97;;;4.50;99.90;;;;;;5053591;28;20513;-74
2023/02/24 02:00:31;;;;;;;8.73;2.50;;;4.60;99.90;;;;;;5053646;28;20445;-74
2023/02/24 02:03:06;;;;;;;7.23;2.13;;;4.50;99.90;;;;;;5070268;28;20848;-75
2023/02/24 02:05:35;;;;;;;8.10;2.80;;;4.50;99.90;;;;;;5053440;28;20491;-74
2023/02/24 02:08:05;;;;;;;9.57;3.47;;;4.50;99.90;;;;;;5053273;28;20520;-75
2023/02/24 02:10:33;;;;;;;8.17;2.83;;;4.50;99.90;;;;;;5053418;28;20448;-74
2023/02/24 02:13:05;;;;;;;13.63;3.10;;;4.50;99.90;;;;;;5053179;28;20454;-74
2023/02/24 02:15:42;;;;;;;10.20;2.90;;;4.50;99.90;;;;;;5053309;28;20439;-74
2023/02/24 02:18:19;;;;;;;7.77;2.17;;;4.50;99.90;;;;;;5054540;28;20505;-74
2023/02/24 02:21:27;;;;;;;7.70;2.43;;;4.50;99.90;;;;;;5054641;28;20428;-74
2023/02/24 02:24:03;;;;;;;6.80;2.10;;;4.50;99.90;;;;;;5054409;28;20535;-74
2023/02/24 02:26:58;;;;;;;7.10;2.50;;;4.40;99.90;;;;;;5053153;28;20938;-74
2023/02/24 02:29:57;;;;;;;7.23;2.40;;;4.40;99.90;;;;;;5052949;28;20975;-74
2023/02/24 02:33:11;;;;;;;9.23;2.60;;;4.40;99.90;;;;;;5052888;28;20462;-74
2023/02/24 02:35:47;;;;;;;11.00;2.70;;;4.40;99.90;;;;;;5052939;28;20446;-74
2023/02/24 02:38:25;;;;;;;8.30;2.20;;;4.40;99.90;;;;;;5069363;28;20438;-74
2023/02/24 02:41:05;;;;;;;9.70;2.50;;;4.40;99.90;;;;;;5052749;28;20453;-74
2023/02/24 02:43:39;;;;;;;8.03;2.07;;;4.40;99.90;;;;;;5054050;28;20422;-74
2023/02/24 02:46:13;;;;;;;9.30;2.10;;;4.40;99.90;;;;;;5053454;28;20454;-74
2023/02/24 02:48:48;;;;;;;6.57;2.10;;;4.30;99.90;;;;;;5052685;28;20465;-74
2023/02/24 02:51:21;;;;;;;8.90;2.30;;;4.40;99.90;;;;;;5053840;28;20548;-74
2023/02/24 02:53:56;;;;;;;5.90;2.13;;;4.40;99.90;;;;;;5052666;28;20496;-75
2023/02/24 02:56:29;;;;;;;8.27;2.13;;;4.40;99.90;;;;;;5052825;28;20463;-74
2023/02/24 02:58:59;;;;;;;7.97;2.13;;;4.40;99.90;;;;;;5053756;28;20808;-74
2023/02/24 03:01:31;;;;;;;5.40;1.93;;;4.40;99.90;;;;;;5052281;28;20516;-74
2023/02/24 03:04:04;;;;;;;5.33;2.23;;;4.40;99.90;;;;;;5052481;28;20487;-74
2023/02/24 03:06:37;;;;;;;8.93;2.30;;;4.40;99.90;;;;;;5053996;28;20418;-74
2023/02/24 03:09:11;;;;;;;8.67;2.10;;;4.30;99.90;;;;;;5052240;28;20454;-74
2023/02/24 03:11:40;;;;;;;6.50;2.20;;;4.30;99.90;;;;;;5053572;28;20460;-74
2023/02/24 03:14:11;;;;;;;8.60;2.10;;;4.30;99.90;;;;;;5052333;28;20472;-74
2023/02/24 03:16:41;;;;;;;8.00;2.33;;;4.30;99.90;;;;;;5053543;28;20986;-74
2023/02/24 03:19:13;;;;;;;8.73;2.00;;;4.30;99.90;;;;;;5052165;28;20442;-75
2023/02/24 03:21:46;;;;;;;7.17;2.07;;;4.30;99.90;;;;;;5053376;28;20473;-74
2023/02/24 03:24:15;;;;;;;6.73;2.27;;;4.30;99.90;;;;;;5053739;28;20422;-74
2023/02/24 03:26:52;;;;;;;10.77;2.33;;;4.30;99.90;;;;;;5052233;28;20441;-74
2023/02/24 03:29:29;;;;;;;8.60;2.60;;;4.30;99.90;;;;;;5052892;28;20466;-74
2023/02/24 03:32:04;;;;;;;6.87;2.13;;;4.30;99.90;;;;;;5051983;28;20475;-74
2023/02/24 03:34:42;;;;;;;6.40;2.07;;;4.30;99.90;;;;;;5052306;28;20434;-74
2023/02/24 03:37:12;;;;;;;7.00;2.20;;;4.30;99.90;;;;;;5051968;28;20525;-75
2023/02/24 03:39:40;;;;;;;7.07;2.83;;;4.30;99.90;;;;;;5051943;28;20549;-75
2023/02/24 03:42:21;;;;;;;5.80;2.10;;;4.30;99.90;;;;;;5052175;28;20813;-75
2023/02/24 03:44:50;;;;;;;6.63;1.73;;;4.30;99.90;;;;;;5053372;28;20438;-75
2023/02/24 03:47:19;;;;;;;7.00;2.67;;;4.30;99.90;;;;;;5051763;28;20449;-75
2023/02/24 03:49:49;;;;;;;7.00;2.30;;;4.30;99.90;;;;;;5054513;28;20462;-75
2023/02/24 03:52:31;;;;;;;7.20;2.13;;;4.20;99.90;;;;;;5056106;28;20466;-74
2023/02/24 03:55:15;;;;;;;6.30;2.00;;;4.30;99.90;;;;;;5056472;28;20815;-74
2023/02/24 03:57:59;;;;;;;5.63;1.80;;;4.20;99.90;;;;;;5057759;28;20425;-74
2023/02/24 04:00:41;;;;;;;7.97;1.93;;;4.20;99.90;;;;;;5056088;28;20463;-74
2023/02/24 04:03:22;;;;;;;7.60;2.03;;;4.20;99.90;;;;;;5055793;28;20457;-75
2023/02/24 04:06:03;;;;;;;5.53;2.27;;;4.20;99.90;;;;;;5055797;28;20499;-74
2023/02/24 04:08:40;;;;;;;9.33;2.57;;;4.20;99.90;;;;;;5055655;28;20492;-74
2023/02/24 04:11:15;;;;;;;7.63;2.03;;;4.30;99.90;;;;;;5055559;28;20465;-74
2023/02/24 04:13:47;;;;;;;5.97;1.90;;;4.30;99.90;;;;;;5072400;28;20460;-74
2023/02/24 04:16:26;;;;;;;5.20;1.67;;;4.20;99.90;;;;;;5056118;28;20446;-75
2023/02/24 04:19:02;;;;;;;9.40;3.00;;;4.20;99.90;;;;;;5055499;28;20474;-73
2023/02/24 04:21:33;;;;;;;8.77;2.27;;;4.20;99.90;;;;;;5055405;28;20469;-74
2023/02/24 04:24:10;;;;;;;8.07;1.90;;;4.20;99.90;;;;;;5055601;28;20446;-73
2023/02/24 04:26:41;;;;;;;6.83;2.63;;;4.20;99.90;;;;;;5055332;28;20430;-74
2023/02/24 04:29:16;;;;;;;10.47;2.60;;;4.20;99.90;;;;;;5057065;28;20461;-74
2023/02/24 04:31:47;;;;;;;9.77;2.83;;;4.20;99.90;;;;;;5055342;28;20469;-73
2023/02/24 04:34:18;;;;;;;7.27;2.40;;;4.20;99.90;;;;;;5055245;28;20824;-75
2023/02/24 04:36:48;;;;;;;6.83;2.57;;;4.20;99.90;;;;;;5071929;28;20434;-74
2023/02/24 04:39:22;;;;;;;7.77;2.13;;;4.20;99.90;;;;;;5055150;28;20453;-75
2023/02/24 04:41:53;;;;;;;11.57;2.43;;;4.20;99.90;;;;;;5056324;28;20815;-74
2023/02/24 04:44:22;;;;;;;9.20;2.30;;;4.20;99.90;;;;;;5056258;28;20532;-74
2023/02/24 04:46:51;;;;;;;5.47;2.67;;;4.20;99.90;;;;;;5056573;28;20437;-75
2023/02/24 04:49:21;;;;;;;6.07;2.70;;;4.20;99.90;;;;;;5054919;28;20480;-75
2023/02/24 04:51:50;;;;;;;5.67;2.10;;;4.20;99.90;;;;;;5056218;28;20450;-74
2023/02/24 04:54:23;;;;;;;6.30;2.37;;;4.20;99.90;;;;;;5056300;28;20438;-74
2023/02/24 04:56:52;;;;;;;8.37;2.20;;;4.20;99.90;;;;;;5054812;28;20931;-75
2023/02/24 04:59:22;;;;;;;5.53;2.43;;;4.20;99.90;;;;;;5056504;28;20434;-75
2023/02/24 05:01:53;;;;;;;10.60;2.77;;;4.20;99.90;;;;;;5056036;28;20454;-74
2023/02/24 05:04:22;;;;;;;5.93;2.70;;;4.20;99.90;;;;;;5055087;28;20965;-74
2023/02/24 05:06:50;;;;;;;7.93;2.30;;;4.20;99.90;;;;;;5054796;28;20445;-74
2023/02/24 05:09:20;;;;;;;8.93;2.50;;;4.20;99.90;;;;;;5055882;28;20470;-75
2023/02/24 05:11:51;;;;;;;11.17;2.67;;;4.20;99.90;;;;;;5055774;28;20449;-75
2023/02/24 05:14:21;;;;;;;6.40;2.53;;;4.20;99.90;;;;;;5055922;28;20970;-75
2023/02/24 05:16:50;;;;;;;10.87;2.37;;;4.20;99.90;;;;;;5056007;28;20418;-75
2023/02/24 05:22:08;;;;;;;9.20;2.67;;;4.20;99.90;;;;;;5055866;28;20464;-75
2023/02/24 05:24:39;;;;;;;6.90;2.43;;;4.20;99.90;;;;;;5055846;28;20427;-75
2023/02/24 05:27:08;;;;;;;7.00;2.43;;;4.20;99.90;;;;;;5055070;28;20450;-75
2023/02/24 05:29:37;;;;;;;7.27;2.67;;;4.20;99.90;;;;;;5055313;28;20464;-75
2023/02/24 05:32:07;;;;;;;11.40;2.50;;;4.20;99.90;;;;;;5055693;28;20488;-75
2023/02/24 05:34:37;;;;;;;9.53;2.30;;;4.20;99.90;;;;;;5070806;28;20450;-75
2023/02/24 05:37:09;;;;;;;9.87;2.83;;;4.20;99.90;;;;;;5054014;28;20442;-74
2023/02/24 05:39:39;;;;;;;5.93;2.47;;;4.20;99.90;;;;;;5054019;28;20950;-74
2023/02/24 05:42:08;;;;;;;11.03;2.80;;;4.10;99.90;;;;;;5055675;28;20480;-75
2023/02/24 05:44:36;;;;;;;8.20;2.00;;;4.20;99.90;;;;;;5055275;28;20442;-74
2023/02/24 05:47:04;;;;;;;7.53;2.13;;;4.20;99.90;;;;;;5055176;28;20437;-74
2023/02/24 05:49:35;;;;;;;4.87;2.37;;;4.20;99.90;;;;;;5055260;28;20511;-75
2023/02/24 05:52:07;;;;;;;6.20;2.10;;;4.20;99.90;;;;;;5053957;28;20570;-75
2023/02/24 05:54:39;;;;;;;7.80;2.60;;;4.20;99.90;;;;;;5054791;28;20454;-75
2023/02/24 05:57:10;;;;;;;5.90;2.87;;;4.20;99.90;;;;;;5055264;28;20415;-74
2023/02/24 05:59:39;;;;;;;6.60;2.43;;;4.20;99.90;;;;;;5054954;28;20507;-75
2023/02/24 06:02:11;;;;;;;10.20;2.50;;;4.20;99.90;;;;;;5054736;28;21003;-75
2023/02/24 06:04:49;;;;;;;7.37;2.80;;;4.20;99.90;;;;;;5053510;28;20474;-75
2023/02/24 06:07:21;;;;;;;11.10;2.77;;;4.20;99.90;;;;;;5054951;28;20429;-76
2023/02/24 06:09:53;;;;;;;6.33;2.53;;;4.20;99.90;;;;;;5054642;28;20454;-75
2023/02/24 06:12:23;;;;;;;6.43;2.33;;;4.20;99.90;;;;;;5052648;28;20462;-75
2023/02/24 06:14:51;;;;;;;8.20;2.30;;;4.20;99.90;;;;;;5053370;28;20446;-76
2023/02/24 06:17:21;;;;;;;7.07;2.10;;;4.20;99.90;;;;;;5054693;28;20475;-76
2023/02/24 06:19:51;;;;;;;7.90;2.23;;;4.20;99.90;;;;;;5054711;28;20446;-76
2023/02/24 06:22:21;;;;;;;6.97;2.77;;;4.20;99.90;;;;;;5053155;28;20462;-75
2023/02/24 06:24:52;;;;;;;10.67;3.40;;;4.20;99.90;;;;;;5054651;28;20433;-75
2023/02/24 06:27:23;;;;;;;7.00;2.43;;;4.30;99.90;;;;;;5069739;28;20438;-75
2023/02/24 06:29:54;;;;;;;7.70;2.17;;;4.20;99.90;;;;;;5053098;28;20441;-76
2023/02/24 06:32:25;;;;;;;8.70;2.27;;;4.20;99.90;;;;;;5054532;28;20977;-75
2023/02/24 06:34:55;;;;;;;6.70;2.53;;;4.20;99.90;;;;;;5053286;28;20544;-75
2023/02/24 06:37:24;;;;;;;8.10;2.57;;;4.20;99.90;;;;;;5054698;28;20426;-75
2023/02/24 06:39:53;;;;;;;9.03;3.30;;;4.20;99.90;;;;;;5053599;28;20446;-75
2023/02/24 06:42:22;;;;;;;8.40;2.50;;;4.20;99.90;;;;;;5054162;28;21065;-75
2023/02/24 06:44:50;;;;;;;5.80;2.60;;;4.20;99.90;;;;;;5054345;28;20485;-75
2023/02/24 06:47:18;;;;;;;10.00;2.93;;;4.20;99.90;;;;;;5052938;28;20449;-74
2023/02/24 06:49:46;;;;;;;7.10;2.37;;;4.20;99.90;;;;;;5052571;28;20453;-75
2023/02/24 06:52:17;;;;;;;6.40;2.30;;;4.20;99.90;;;;;;5054412;28;20465;-76
2023/02/24 06:54:48;;;;;;;8.50;2.50;;;4.10;99.90;;;;;;5054295;28;20426;-75
2023/02/24 06:57:19;;;;;;;7.10;2.20;;;4.10;99.90;;;;;;5052681;28;20441;-75
2023/02/24 06:59:47;;;;;;;8.60;2.70;;;4.10;99.90;;;;;;5054036;28;20446;-75
2023/02/24 07:02:17;;;;;;;13.40;2.43;;;4.10;99.90;;;;;;5054032;28;20800;-75
2023/02/24 07:04:46;;;;;;;7.93;3.30;;;4.10;99.90;;;;;;5053699;28;20442;-75
2023/02/24 07:07:16;;;;;;;8.60;2.90;;;4.10;99.90;;;;;;5052421;28;20537;-75
2023/02/24 07:09:44;;;;;;;10.47;2.70;;;4.10;99.90;;;;;;5052363;28;20457;-76
2023/02/24 07:12:14;;;;;;;8.77;3.20;;;4.10;99.90;;;;;;5053941;28;20488;-77
2023/02/24 07:14:43;;;;;;;6.63;2.50;;;4.10;99.90;;;;;;5052365;28;20438;-76
2023/02/24 07:17:15;;;;;;;10.97;3.03;;;4.10;99.90;;;;;;5052309;28;20458;-76
2023/02/24 07:19:43;;;;;;;12.20;3.77;;;4.10;99.90;;;;;;5053453;28;20443;-75
2023/02/24 07:22:14;;;;;;;9.73;3.10;;;4.00;99.90;;;;;;5052068;28;20560;-75
2023/02/24 07:24:44;;;;;;;7.23;3.00;;;4.00;99.90;;;;;;5052979;28;20527;-75
2023/02/24 07:27:20;;;;;;;6.97;2.90;;;4.10;99.90;;;;;;5053722;28;20433;-75
2023/02/24 07:29:52;;;;;;;8.33;2.53;;;4.10;99.90;;;;;;5053393;28;20414;-76
2023/02/24 07:32:24;;;;;;;8.03;3.20;;;4.10;99.90;;;;;;5051892;28;20478;-75
2023/02/24 07:34:52;;;;;;;10.13;3.10;;;4.00;99.90;;;;;;5053597;28;20476;-75
2023/02/24 07:37:22;;;;;;;6.80;2.77;;;4.00;99.90;;;;;;5051824;28;20457;-75
2023/02/24 07:39:50;;;;;;;7.20;3.50;;;4.00;99.90;;;;;;5053187;28;20443;-75
2023/02/24 07:42:18;;;;;;;8.10;3.33;;;4.00;99.90;;;;;;5053411;28;21031;-75
2023/02/24 07:44:55;;;;;;;8.67;2.80;;;4.10;99.90;;;;;;5053789;28;20414;-76
2023/02/24 07:47:24;;;;;;;6.90;2.70;;;4.00;99.90;;;;;;5053158;28;20955;-76
2023/02/24 07:49:52;;;;;;;6.10;3.00;;;4.00;99.90;;;;;;5053181;28;20543;-76
2023/02/24 07:52:20;;;;;;;9.03;3.07;;;4.00;99.90;;;;;;5053019;28;20473;-76
2023/02/24 07:54:48;;;;;;;11.70;3.90;;;4.00;99.90;;;;;;5053164;28;20856;-75
2023/02/24 07:57:17;;;;;;;10.57;4.00;;;4.00;99.90;;;;;;5053091;28;20434;-75
2023/02/24 07:59:46;;;;;;;6.37;3.47;;;4.00;99.90;;;;;;5051746;28;20503;-75
2023/02/24 08:02:17;;;;;;;8.03;3.93;;;4.00;99.90;;;;;;5051680;28;20510;-76
2023/02/24 08:04:48;;;;;;;8.50;3.90;;;4.00;99.90;;;;;;5051833;28;20485;-76
2023/02/24 08:07:22;;;;;;;7.70;3.63;;;4.00;99.90;;;;;;5053003;28;20422;-76
2023/02/24 08:10:12;;;;;;;9.90;4.43;;;4.00;99.90;;;;;;5051698;28;20445;-76
2023/02/24 08:12:46;;;;;;;7.63;4.50;;;4.00;99.90;;;;;;5051465;28;20478;-76
2023/02/24 08:15:22;;;;;;;8.20;4.23;;;3.90;99.90;;;;;;5052909;28;20958;-75
2023/02/24 08:17:53;;;;;;;9.93;4.43;;;3.90;99.90;;;;;;5053453;28;20532;-76
2023/02/24 08:20:28;;;;;;;7.20;5.50;;;3.90;99.90;;;;;;5051718;28;20444;-76
2023/02/24 08:22:56;;;;;;;10.33;4.93;;;3.90;99.90;;;;;;5068453;28;20522;-76
2023/02/24 08:25:34;;;;;;;9.20;4.60;;;3.90;99.90;;;;;;5051726;28;20450;-76
2023/02/24 08:28:05;;;;;;;9.20;4.53;;;3.80;99.90;;;;;;5052772;28;20895;-76
2023/02/24 08:30:39;;;;;;;9.50;5.67;;;3.90;99.90;;;;;;5051682;28;20801;-76
2023/02/24 08:33:14;;;;;;;10.20;4.60;;;3.80;99.90;;;;;;5052826;28;20475;-76
2023/02/24 08:35:44;;;;;;;6.87;4.20;;;3.80;99.90;;;;;;5055333;28;20421;-76
2023/02/24 08:38:14;;;;;;;10.17;4.80;;;3.80;99.90;;;;;;5056643;28;20833;-76
2023/02/24 08:40:50;;;;;;;8.87;5.10;;;3.80;99.90;;;;;;5055056;28;20540;-76
2023/02/24 08:43:31;;;;;;;15.03;5.30;;;3.80;99.90;;;;;;5056504;28;20435;-76
2023/02/24 08:46:03;;;;;;;11.63;7.43;;;3.80;99.90;;;;;;5056564;28;20435;-76
2023/02/24 08:48:40;;;;;;;10.73;5.87;;;3.80;99.90;;;;;;5055014;28;20943;-76
2023/02/24 08:51:13;;;;;;;9.03;5.03;;;3.80;99.90;;;;;;5054832;28;20469;-76
2023/02/24 08:53:43;;;;;;;6.40;5.70;;;3.80;99.90;;;;;;5056464;28;20418;-76
2023/02/24 08:56:13;;;;;;;10.57;6.43;;;3.80;99.90;;;;;;5056081;28;20438;-76
2023/02/24 08:58:45;;;;;;;8.07;5.70;;;3.70;99.90;;;;;;5054796;28;20484;-76
2023/02/24 09:01:22;;;;;;;10.47;6.80;;;3.70;99.90;;;;;;5056170;28;20493;-76
2023/02/24 09:03:55;;;;;;;14.33;7.47;;;3.70;99.90;;;;;;5056225;28;20926;-76
2023/02/24 09:06:26;;;;;;;10.30;7.87;;;3.70;99.90;;;;;;5054622;28;20858;-77
2023/02/24 09:11:42;;;;;;;9.80;6.87;;;3.70;99.90;;;;;;5054092;28;20525;-76
2023/02/24 09:14:15;;;;;;;8.90;7.60;;;3.70;99.90;;;;;;5054427;28;20949;-76
2023/02/24 09:17:05;;;;;;;9.10;7.40;;;3.70;99.90;;;;;;5054465;28;20452;-76
2023/02/24 09:20:22;;;;;;;12.17;8.30;;;3.80;99.90;;;;;;5071151;28;20540;-76
2023/02/24 09:22:30;;;;;;;9.63;8.13;;;3.80;99.90;;;;;;5055400;28;20458;-76
2023/02/24 09:25:20;;;;;;;11.73;8.80;;;3.80;99.90;;;;;;5055855;28;20441;-76
2023/02/24 09:27:53;;;;;;;12.87;8.70;;;3.80;99.90;;;;;;5054369;28;20521;-76
2023/02/24 09:30:37;;;;;;;10.50;9.30;;;3.80;99.90;;;;;;5054223;28;20462;-76
2023/02/24 09:33:21;;;;;;;9.50;8.50;;;3.80;99.90;;;;;;5055648;28;20461;-76
2023/02/24 09:36:08;;;;;;;10.27;8.80;;;3.80;99.90;;;;;;5055476;28;20830;-76
2023/02/24 09:41:32;;;;;;;10.27;9.17;;;3.90;99.90;;;;;;5053959;28;20472;-76
2023/02/24 09:44:06;;;;;;;11.87;10.00;;;3.90;99.90;;;;;;5054000;28;20450;-76
2023/02/24 09:46:42;;;;;;;12.27;9.43;;;3.90;99.90;;;;;;5054295;28;20422;-76
2023/02/24 09:49:17;;;;;;;11.67;10.20;;;3.90;99.90;;;;;;5053894;28;20435;-76
2023/02/24 09:51:58;;;;;;;12.83;10.77;;;3.90;99.90;;;;;;5053669;28;20470;-75
2023/02/24 09:54:34;;;;;;;12.50;10.70;;;4.00;99.90;;;;;;5053772;28;20957;-75
2023/02/24 09:57:15;;;;;;;11.77;10.47;;;4.00;99.90;;;;;;5053789;28;20445;-75
2023/02/24 10:00:23;;;;;;;12.27;11.07;;;4.00;99.90;;;;;;5055210;28;20414;-75
2023/02/24 10:02:58;;;;;;;13.33;9.73;;;4.00;99.90;;;;;;5053396;28;20470;-75
2023/02/24 10:05:37;;;;;;;10.17;9.17;;;4.00;99.90;;;;;;5053658;28;20438;-75
2023/02/24 10:08:17;;;;;;;9.87;8.97;;;4.10;99.90;;;;;;5054916;28;20513;-75
2023/02/24 10:11:05;;;;;;;11.00;9.90;;;4.10;99.90;;;;;;5054930;28;20914;-75
2023/02/24 10:13:38;;;;;;;15.43;9.30;;;4.10;99.90;;;;;;5054614;28;21017;-75
2023/02/24 10:16:10;;;;;;;10.07;8.97;;;4.10;99.90;;;;;;5053390;28;20443;-75
2023/02/24 10:18:44;;;;;;;9.50;8.50;;;4.10;99.90;;;;;;5053288;28;20448;-75
2023/02/24 10:21:29;;;;;;;10.90;9.70;;;4.10;99.90;;;;;;5053175;28;21023;-75
2023/02/24 10:24:08;;;;;;;11.10;9.70;;;4.10;99.90;;;;;;5054388;28;20437;-75
2023/02/24 10:26:44;;;;;;;13.87;10.83;;;4.10;99.90;;;;;;5069786;28;20449;-75
2023/02/24 10:29:42;;;;;;;11.13;9.23;;;4.10;99.90;;;;;;5053092;28;20450;-75
2023/02/24 10:32:22;;;;;;;10.40;9.40;;;4.20;99.90;;;;;;5052961;28;20842;-76
2023/02/24 10:34:51;;;;;;;10.93;9.83;;;4.10;99.90;;;;;;5054564;28;20417;-76
2023/02/24 10:37:22;;;;;;;11.53;10.43;;;4.10;99.90;;;;;;5054212;28;20935;-76
2023/02/24 10:39:59;;;;;;;11.63;10.43;;;4.10;99.90;;;;;;5054529;28;20921;-76
2023/02/24 10:42:30;;;;;;;11.30;10.20;;;4.10;99.90;;;;;;5052842;28;20492;-76
2023/02/24 10:45:13;;;;;;;12.47;11.17;;;4.10;99.90;;;;;;5054358;28;20425;-75
2023/02/24 10:47:55;;;;;;;11.53;10.53;;;4.10;99.90;;;;;;5054108;28;20521;-75
2023/02/24 10:50:26;;;;;;;12.20;11.07;;;4.20;99.90;;;;;;5054213;28;20425;-75
2023/02/24 10:53:33;;;;;;;13.37;11.93;;;4.20;99.90;;;;;;5054353;28;20470;-75
2023/02/24 10:59:19;;;;;;;14.40;12.90;;;4.10;99.90;;;;;;5052354;28;21001;-76
2023/02/24 11:01:58;;;;;;;13.10;11.80;;;4.10;99.90;;;;;;5053000;28;20489;-76
2023/02/24 11:04:43;;;;;;;12.13;11.03;;;4.20;99.90;;;;;;5053775;28;20436;-76
2023/02/24 11:07:23;;;;;;;15.43;12.80;;;4.20;99.90;;;;;;5053997;28;20461;-76
2023/02/24 11:10:10;;;;;;;15.27;13.50;;;4.20;99.90;;;;;;5052392;28;20501;-76
2023/02/24 11:18:30;;;;;;;16.60;14.90;;;4.20;99.90;;;;;;5052247;28;20486;-76
2023/02/24 11:21:00;;;;;;;17.30;15.70;;;4.20;99.90;;;;;;5053718;28;20450;-76
2023/02/24 11:23:33;;;;;;;18.30;16.40;;;4.20;99.90;;;;;;5053415;28;20432;-76
2023/02/24 11:26:04;;;;;;;17.60;15.90;;;4.30;99.90;;;;;;5053717;28;20414;-76
2023/02/24 11:29:14;;;;;;;18.90;17.23;;;4.30;99.90;;;;;;5053560;28;20915;-76
2023/02/24 11:32:07;;;;;;;18.80;17.07;;;4.40;99.90;;;;;;5029777;28;20475;-76
2023/02/24 11:34:48;;;;;;;18.90;17.07;;;4.40;99.90;;;;;;5053561;28;20426;-76
2023/02/24 11:37:33;;;;;;;19.30;17.47;;;4.40;99.90;;;;;;5053322;28;20432;-75
2023/02/24 11:40:05;;;;;;;18.03;16.23;;;4.40;99.90;;;;;;5052044;28;20533;-76
2023/02/24 11:42:39;;;;;;;18.37;16.67;;;4.50;99.90;;;;;;5051995;28;20470;-76
2023/02/24 11:45:21;;;;;;;18.00;16.20;;;4.50;99.90;;;;;;5053263;28;20418;-76
2023/02/24 11:47:54;;;;;;;18.20;16.30;;;4.50;99.90;;;;;;5051944;28;20447;-75
2023/02/24 11:50:42;;;;;;;19.07;17.33;;;4.50;99.90;;;;;;5053369;28;20418;-75
2023/02/24 11:53:20;;;;;;;17.40;15.80;;;4.60;99.90;;;;;;5051811;28;20469;-76
2023/02/24 11:55:54;;;;;;;18.83;17.13;;;4.60;99.90;;;;;;5053458;28;20422;-76
2023/02/24 11:58:28;;;;;;;18.33;16.63;;;4.70;99.90;;;;;;5051884;28;20449;-76
2023/02/24 12:01:03;;;;;;;18.00;15.20;;;4.70;99.90;;;;;;5053191;28;20414;-76
2023/02/24 12:03:37;;;;;;;15.40;13.97;;;4.80;99.90;;;;;;5053379;28;20512;-76
2023/02/24 12:06:15;;;;;;;15.43;13.73;;;4.80;99.90;;;;;;5053034;28;20425;-76
2023/02/24 12:08:48;;;;;;;15.20;13.80;;;4.90;99.90;;;;;;5051718;28;20500;-76
2023/02/24 12:11:22;;;;;;;15.27;13.93;;;5.00;99.90;;;;;;5056362;28;20982;-76
2023/02/24 12:14:03;;;;;;;15.17;13.60;;;5.00;99.90;;;;;;5055521;28;20481;-76
2023/02/24 12:16:37;;;;;;;16.87;15.30;;;5.10;99.90;;;;;;5057185;28;20856;-76
2023/02/24 12:19:17;;;;;;;19.43;17.40;;;5.20;99.90;;;;;;5055516;28;20446;-76
2023/02/24 12:21:51;;;;;;;19.47;17.70;;;5.20;99.90;;;;;;5055510;28;20511;-76
2023/02/24 12:24:21;;;;;;;22.60;20.47;;;5.40;99.90;;;;;;5055534;28;20446;-76
2023/02/24 12:27:00;;;;;;;20.53;18.67;;;5.40;99.90;;;;;;5055395;28;20495;-75
2023/02/24 12:29:51;;;;;;;21.40;19.30;;;5.50;99.90;;;;;;5055377;28;20496;-75
2023/02/24 12:32:30;;;;;;;20.73;18.53;;;5.50;99.90;;;;;;5055244;28;20474;-76
2023/02/24 12:35:08;;;;;;;22.40;20.37;;;5.50;99.90;;;;;;5056622;28;20465;-76
2023/02/24 12:37:57;;;;;;;22.13;19.77;;;5.60;99.90;;;;;;5055292;28;20442;-76
2023/02/24 12:40:33;;;;;;;18.03;15.47;;;5.60;99.90;;;;;;5057040;28;20786;-75
2023/02/24 12:43:14;;;;;;;14.03;12.80;;;5.70;99.90;;;;;;5055408;28;20470;-75
2023/02/24 12:45:52;;;;;;;16.37;14.83;;;5.70;99.90;;;;;;5057187;28;20422;-74
2023/02/24 12:48:52;;;;;;;14.67;12.23;;;5.70;99.90;;;;;;5056605;28;20513;-75
2023/02/24 12:51:32;;;;;;;13.90;10.10;;;5.80;99.90;;;;;;5055085;28;20473;-74
2023/02/24 12:54:07;;;;;;;12.53;9.97;;;5.80;99.90;;;;;;5056287;28;20969;-76
2023/02/24 12:56:41;;;;;;;11.10;9.60;;;5.80;99.90;;;;;;5054912;28;20433;-76
2023/02/24 12:59:14;;;;;;;15.40;10.53;;;5.80;99.90;;;;;;5054929;28;20465;-76
2023/02/24 13:01:50;;;;;;;10.83;9.43;;;5.80;99.90;;;;;;5056104;28;20454;-76
2023/02/24 13:04:36;;;;;;;16.97;10.87;;;5.90;99.90;;;;;;5054768;28;20508;-76
2023/02/24 13:07:27;;;;;;;13.17;10.27;;;5.90;99.90;;;;;;5055953;28;20425;-76
2023/02/24 13:10:11;;;;;;;12.67;10.63;;;5.90;99.90;;;;;;5054726;28;20467;-76
2023/02/24 13:12:47;;;;;;;12.20;10.20;;;5.90;99.90;;;;;;5054991;28;20481;-76
2023/02/24 13:15:21;;;;;;;12.80;9.77;;;6.00;99.90;;;;;;5059038;28;20462;-78
2023/02/24 13:17:51;;;;;;;15.00;9.80;;;6.00;99.90;;;;;;5059500;28;20442;-78
2023/02/24 13:20:30;;;;;;;14.70;10.37;;;6.10;99.90;;;;;;5060763;28;20521;-78
2023/02/24 13:23:00;;;;;;;13.73;10.97;;;6.20;99.90;;;;;;5057354;28;20475;-77
2023/02/24 13:25:32;;;;;;;14.60;11.00;;;6.20;99.90;;;;;;5054778;28;20489;-77
2023/02/24 13:28:03;;;;;;;16.90;11.80;;;6.30;99.90;;;;;;5054706;28;20873;-75
2023/02/24 13:30:38;;;;;;;13.97;9.57;;;6.30;99.90;;;;;;5056023;28;20427;-76
2023/02/24 13:33:22;;;;;;;14.60;10.03;;;6.40;99.90;;;;;;5055620;28;20429;-75
2023/02/24 13:36:05;;;;;;;12.87;8.53;;;6.40;99.90;;;;;;5054352;28;20446;-77
2023/02/24 13:38:39;;;;;;;13.47;7.60;;;6.50;99.90;;;;;;5054162;28;20883;-75
2023/02/24 13:41:35;;;;;;;15.50;7.87;;;6.50;99.90;;;;;;5054130;28;20474;-74
2023/02/24 13:44:22;;;;;;;16.23;7.23;;;6.60;99.90;;;;;;5054379;28;20454;-77
2023/02/24 13:47:16;;;;;;;12.27;5.10;;;6.70;99.90;;;;;;5054334;28;20438;-76
2023/02/24 13:49:55;;;;;;;13.33;4.50;;;6.80;99.90;;;;;;5056438;28;20453;-76